createdAt,value
2024-01-16T00:02:11.605Z,4.55
2024-01-16T00:04:38.710Z,5.25
2024-01-16T00:07:05.874Z,6.22
2024-01-16T00:09:36.074Z,3.50
2024-01-16T00:12:05.724Z,9.13
2024-01-16T00:14:37.568Z,6.55
2024-01-16T00:17:04.443Z,7.40
2024-01-16T00:19:31.007Z,7.05
2024-01-16T00:21:57.557Z,5.32
2024-01-16T00:24:24.331Z,5.43
2024-01-16T00:26:52.039Z,5.13
2024-01-16T00:29:18.691Z,8.18
2024-01-16T00:31:45.266Z,12.43
2024-01-16T00:34:11.807Z,5.25
2024-01-16T00:36:38.327Z,6.78
2024-01-16T00:39:04.852Z,7.72
2024-01-16T00:41:31.605Z,6.60
2024-01-16T00:43:58.149Z,6.65
2024-01-16T00:46:24.687Z,6.82
2024-01-16T00:48:51.326Z,5.38
2024-01-16T00:51:17.849Z,8.70
2024-01-16T00:53:45.225Z,7.53
2024-01-16T00:56:12.128Z,8.07
2024-01-16T00:58:38.904Z,7.07
2024-01-16T01:01:05.684Z,6.45
2024-01-16T01:03:32.336Z,6.65
2024-01-16T01:05:59.370Z,8.05
2024-01-16T01:08:25.979Z,5.07
2024-01-16T01:10:52.609Z,5.80
2024-01-16T01:13:19.257Z,6.65
2024-01-16T01:15:45.867Z,10.00
2024-01-16T01:18:12.492Z,8.23
2024-01-16T01:20:39.081Z,11.60
2024-01-16T01:23:05.617Z,11.13
2024-01-16T01:25:32.139Z,6.22
2024-01-16T01:27:58.673Z,10.07
2024-01-16T01:30:25.375Z,11.10
2024-01-16T01:32:52.164Z,13.45
2024-01-16T01:35:20.809Z,8.63
2024-01-16T01:37:47.535Z,13.32
2024-01-16T01:40:16.714Z,13.10
2024-01-16T01:42:43.855Z,11.52
2024-01-16T01:45:11.423Z,16.85
2024-01-16T01:47:45.005Z,11.38
2024-01-16T01:50:12.200Z,9.13
2024-01-16T01:52:41.654Z,9.77
2024-01-16T01:55:14.564Z,8.35
2024-01-16T01:57:43.800Z,14.98
2024-01-16T02:00:11.065Z,7.93
2024-01-16T02:02:37.693Z,7.00
2024-01-16T02:05:04.891Z,10.68
2024-01-16T02:07:33.971Z,16.23
2024-01-16T02:10:01.560Z,10.02
2024-01-16T02:12:28.297Z,10.85
2024-01-16T02:14:54.766Z,9.00
2024-01-16T02:17:21.294Z,10.05
2024-01-16T02:19:47.783Z,7.57
2024-01-16T02:22:20.819Z,7.05
2024-01-16T02:24:47.660Z,10.05
2024-01-16T02:27:14.319Z,9.98
2024-01-16T02:29:44.429Z,11.10
2024-01-16T02:32:13.975Z,13.57
2024-01-16T02:34:40.794Z,11.88
2024-01-16T02:37:07.320Z,14.98
2024-01-16T02:39:33.867Z,16.02
2024-01-16T02:42:00.354Z,10.32
2024-01-16T02:44:26.968Z,8.90
2024-01-16T02:46:53.495Z,9.20
2024-01-16T02:49:20.056Z,10.43
2024-01-16T02:51:46.581Z,9.60
2024-01-16T02:54:13.189Z,8.73
2024-01-16T02:56:39.803Z,11.15
2024-01-16T02:59:06.692Z,15.93
2024-01-16T03:01:33.244Z,11.45
2024-01-16T03:03:59.766Z,14.25
2024-01-16T03:06:26.584Z,7.40
2024-01-16T03:08:53.430Z,8.25
2024-01-16T03:11:20.047Z,12.65
2024-01-16T03:13:46.762Z,11.60
2024-01-16T03:16:13.604Z,8.63
2024-01-16T03:18:40.220Z,16.95
2024-01-16T03:21:07.421Z,12.70
2024-01-16T03:23:34.159Z,7.45
2024-01-16T03:26:00.702Z,20.27
2024-01-16T03:28:27.193Z,10.60
2024-01-16T03:30:55.012Z,10.27
2024-01-16T03:33:21.831Z,17.30
2024-01-16T03:35:48.758Z,10.55
2024-01-16T03:38:15.391Z,13.27
2024-01-16T03:40:41.978Z,13.73
2024-01-16T03:43:08.928Z,10.45
2024-01-16T03:45:35.445Z,10.93
2024-01-16T03:48:04.527Z,11.30
2024-01-16T03:50:31.260Z,10.75
2024-01-16T03:52:57.807Z,13.68
2024-01-16T03:55:24.279Z,13.18
2024-01-16T03:57:52.205Z,10.95
2024-01-16T04:00:18.849Z,10.45
2024-01-16T04:02:45.508Z,9.15
2024-01-16T04:05:12.257Z,12.35
2024-01-16T04:07:38.841Z,11.05
2024-01-16T04:10:07.710Z,8.85
2024-01-16T04:12:34.192Z,10.45
2024-01-16T04:15:00.734Z,11.68
2024-01-16T04:17:27.353Z,9.57
2024-01-16T04:19:53.841Z,8.88
2024-01-16T04:22:20.348Z,15.55
2024-01-16T04:24:48.006Z,8.38
2024-01-16T04:27:14.613Z,9.00
2024-01-16T04:29:41.158Z,12.60
2024-01-16T04:32:07.726Z,7.43
2024-01-16T04:34:35.526Z,6.00
2024-01-16T04:37:02.133Z,9.73
2024-01-16T04:39:28.610Z,9.13
2024-01-16T04:41:55.278Z,14.10
2024-01-16T04:44:21.846Z,13.18
2024-01-16T04:46:48.632Z,13.02
2024-01-16T04:49:15.171Z,12.73
2024-01-16T04:51:41.686Z,11.88
2024-01-16T04:54:08.497Z,14.13
2024-01-16T04:56:35.212Z,15.80
2024-01-16T04:59:01.965Z,14.20
2024-01-16T05:01:28.480Z,15.43
2024-01-16T05:03:55.898Z,14.35
2024-01-16T05:06:22.678Z,16.73
2024-01-16T05:08:49.822Z,15.93
2024-01-16T05:11:16.494Z,19.98
2024-01-16T05:13:43.102Z,20.20
2024-01-16T05:16:10.534Z,17.35
2024-01-16T05:18:37.233Z,25.65
2024-01-16T05:21:05.710Z,18.88
2024-01-16T05:23:32.277Z,18.27
2024-01-16T05:25:59.036Z,18.17
2024-01-16T05:28:25.673Z,17.67
2024-01-16T05:30:52.319Z,24.65
2024-01-16T05:33:19.027Z,20.38
2024-01-16T05:35:45.616Z,21.75
2024-01-16T05:38:13.570Z,24.35
2024-01-16T05:40:40.994Z,25.80
2024-01-16T05:43:07.547Z,15.98
2024-01-16T05:45:34.092Z,22.40
2024-01-16T05:48:00.840Z,20.80
2024-01-16T05:50:27.689Z,18.65
2024-01-16T05:52:54.503Z,20.98
2024-01-16T05:55:22.513Z,19.48
2024-01-16T05:57:49.063Z,23.50
2024-01-16T06:00:16.008Z,23.00
2024-01-16T06:02:42.522Z,23.15
2024-01-16T06:05:09.247Z,17.25
2024-01-16T06:07:35.825Z,18.80
2024-01-16T06:10:03.586Z,19.75
2024-01-16T06:12:30.652Z,20.52
2024-01-16T06:14:59.070Z,18.45
2024-01-16T06:17:25.689Z,23.90
2024-01-16T06:19:52.186Z,19.63
2024-01-16T06:22:18.688Z,23.48
2024-01-16T06:24:45.174Z,19.48
2024-01-16T06:27:11.650Z,19.83
2024-01-16T06:29:38.184Z,21.13
2024-01-16T06:32:05.439Z,20.98
2024-01-16T06:34:32.072Z,18.35
2024-01-16T06:36:58.640Z,27.10
2024-01-16T06:39:25.111Z,14.90
2024-01-16T06:41:51.774Z,18.88
2024-01-16T06:44:20.184Z,26.15
2024-01-16T06:46:47.008Z,14.82
2024-01-16T06:49:13.768Z,18.85
2024-01-16T06:51:40.320Z,22.13
2024-01-16T06:54:06.862Z,21.35
2024-01-16T06:56:33.487Z,17.77
2024-01-16T06:59:00.017Z,18.80
2024-01-16T07:01:27.810Z,14.63
2024-01-16T07:03:54.361Z,16.83
2024-01-16T07:06:20.978Z,14.32
2024-01-16T07:08:47.732Z,16.00
2024-01-16T07:11:14.985Z,16.70
2024-01-16T07:13:42.495Z,15.07
2024-01-16T07:16:12.578Z,18.25
2024-01-16T07:18:39.559Z,15.10
2024-01-16T07:21:17.188Z,15.25
2024-01-16T07:23:43.702Z,17.05
2024-01-16T07:26:10.258Z,14.00
2024-01-16T07:28:36.753Z,14.38
2024-01-16T07:31:03.354Z,14.65
2024-01-16T07:33:30.000Z,15.80
2024-01-16T07:35:56.650Z,11.48
2024-01-16T07:38:23.546Z,13.77
2024-01-16T07:40:50.149Z,19.15
2024-01-16T07:43:16.922Z,16.25
2024-01-16T07:45:43.428Z,15.68
2024-01-16T07:48:09.964Z,16.45
2024-01-16T07:50:36.534Z,14.38
2024-01-16T07:53:03.156Z,16.50
2024-01-16T07:55:29.655Z,12.95
2024-01-16T07:57:56.562Z,15.23
2024-01-16T08:00:23.121Z,13.43
2024-01-16T08:02:50.108Z,12.68
2024-01-16T08:05:17.024Z,14.05
2024-01-16T08:07:44.649Z,15.88
2024-01-16T08:10:11.188Z,13.50
2024-01-16T08:12:38.441Z,18.65
2024-01-16T08:15:06.368Z,15.50
2024-01-16T08:17:32.884Z,13.95
2024-01-16T08:19:59.397Z,13.73
2024-01-16T08:22:25.932Z,15.15
2024-01-16T08:24:52.483Z,13.50
2024-01-16T08:27:20.619Z,17.08
2024-01-16T08:29:49.539Z,13.18
2024-01-16T08:32:16.168Z,15.02
2024-01-16T08:34:42.889Z,13.77
2024-01-16T08:37:10.402Z,16.02
2024-01-16T08:39:37.281Z,13.75
2024-01-16T08:42:04.239Z,13.32
2024-01-16T08:44:30.755Z,11.52
2024-01-16T08:46:58.766Z,16.90
2024-01-16T08:49:25.262Z,12.63
2024-01-16T08:51:51.935Z,17.55
2024-01-16T08:54:18.457Z,13.77
2024-01-16T08:56:44.973Z,12.38
2024-01-16T08:59:11.599Z,15.90
2024-01-16T09:01:38.285Z,16.35
2024-01-16T09:04:04.892Z,15.00
2024-01-16T09:06:31.611Z,14.32
2024-01-16T09:08:58.206Z,18.63
2024-01-16T09:11:24.709Z,11.65
2024-01-16T09:13:51.229Z,11.68
2024-01-16T09:16:17.838Z,11.82
2024-01-16T09:18:44.599Z,12.98
2024-01-16T09:21:11.192Z,16.58
2024-01-16T09:23:37.665Z,14.50
2024-01-16T09:26:04.280Z,11.68
2024-01-16T09:28:30.754Z,15.55
2024-01-16T09:30:57.357Z,16.80
2024-01-16T09:33:26.993Z,13.38
2024-01-16T09:35:53.817Z,17.00
2024-01-16T09:38:20.494Z,15.25
2024-01-16T09:40:51.906Z,13.35
2024-01-16T09:43:18.491Z,20.58
2024-01-16T09:45:48.520Z,14.38
2024-01-16T09:48:15.854Z,18.35
2024-01-16T09:50:42.469Z,15.77
2024-01-16T09:53:09.043Z,14.15
2024-01-16T09:55:35.600Z,17.92
2024-01-16T09:58:04.670Z,15.43
2024-01-16T10:00:31.867Z,14.13
2024-01-16T10:03:00.692Z,15.02
2024-01-16T10:05:27.666Z,12.93
2024-01-16T10:07:55.545Z,14.88
2024-01-16T10:10:30.359Z,17.88
2024-01-16T10:13:05.583Z,17.40
2024-01-16T10:15:32.654Z,20.63
2024-01-16T10:18:00.860Z,11.10
2024-01-16T10:20:35.544Z,11.25
2024-01-16T10:23:04.605Z,16.02
2024-01-16T10:25:31.130Z,12.40
2024-01-16T10:28:06.021Z,13.75
2024-01-16T10:30:32.682Z,11.68
2024-01-16T10:33:14.653Z,11.20
2024-01-16T10:35:41.257Z,20.70
2024-01-16T10:38:07.825Z,15.52
2024-01-16T10:40:35.301Z,10.30
2024-01-16T10:43:04.450Z,10.07
2024-01-16T10:45:31.747Z,8.75
2024-01-16T10:48:04.989Z,14.27
2024-01-16T10:50:32.474Z,7.63
2024-01-16T10:53:02.252Z,8.15
2024-01-16T10:55:30.775Z,9.63
2024-01-16T10:57:57.916Z,10.40
2024-01-16T11:00:25.750Z,9.20
2024-01-16T11:03:08.588Z,10.48
2024-01-16T11:05:36.861Z,13.18
2024-01-16T11:08:06.781Z,10.98
2024-01-16T11:10:36.134Z,6.68
2024-01-16T11:13:03.961Z,9.05
2024-01-16T11:15:30.657Z,6.68
2024-01-16T11:17:58.749Z,7.70
2024-01-16T11:20:41.292Z,9.85
2024-01-16T11:23:14.005Z,9.60
2024-01-16T11:25:40.634Z,11.18
2024-01-16T11:28:16.882Z,7.25
2024-01-16T11:30:45.124Z,9.55
2024-01-16T11:33:33.628Z,6.60
2024-01-16T11:36:01.279Z,6.47
2024-01-16T11:38:28.293Z,8.10
2024-01-16T11:40:55.278Z,6.47
2024-01-16T11:43:34.153Z,3.60
2024-01-16T11:46:02.219Z,6.05
2024-01-16T11:48:28.981Z,9.32
2024-01-16T11:50:55.895Z,5.15
2024-01-16T11:53:31.683Z,4.93
2024-01-16T11:56:38.151Z,5.45
2024-01-16T11:59:30.457Z,4.25
2024-01-16T12:02:02.824Z,4.25
2024-01-16T12:04:30.683Z,8.52
2024-01-16T12:07:01.864Z,7.38
2024-01-16T12:09:29.487Z,6.45
2024-01-16T12:12:03.903Z,6.15
2024-01-16T12:14:31.533Z,3.60
2024-01-16T12:17:14.785Z,6.57
2024-01-16T12:19:43.636Z,8.40
2024-01-16T12:22:11.288Z,2.10
2024-01-16T12:24:38.813Z,4.88
2024-01-16T12:27:06.336Z,4.25
2024-01-16T12:29:33.312Z,7.05
2024-01-16T12:32:10.820Z,6.00
2024-01-16T12:34:46.867Z,5.80
2024-01-16T12:37:13.938Z,4.55
2024-01-16T12:39:42.706Z,4.80
2024-01-16T12:42:11.178Z,3.95
2024-01-16T12:44:37.732Z,5.68
2024-01-16T12:47:04.485Z,8.02
2024-01-16T12:49:31.608Z,6.20
2024-01-16T12:52:22.035Z,2.22
2024-01-16T12:57:22.697Z,5.95
2024-01-16T12:59:50.406Z,6.43
2024-01-16T13:02:25.684Z,2.13
2024-01-16T13:05:04.506Z,5.38
2024-01-16T13:07:32.953Z,10.65
2024-01-16T13:10:14.090Z,7.38
2024-01-16T13:12:40.832Z,17.70
2024-01-16T13:15:07.908Z,9.18
2024-01-16T13:17:38.201Z,2.47
2024-01-16T13:20:08.673Z,17.73
2024-01-16T13:22:43.328Z,14.68
2024-01-16T13:25:12.960Z,9.63
2024-01-16T13:27:39.584Z,6.13
2024-01-16T13:30:07.220Z,2.33
2024-01-16T13:32:37.859Z,3.97
2024-01-16T13:35:08.899Z,6.35
2024-01-16T13:40:09.931Z,6.50
2024-01-16T13:42:36.710Z,6.40
2024-01-16T13:45:05.257Z,3.42
2024-01-16T13:47:32.118Z,7.07
2024-01-16T13:49:58.747Z,6.68
2024-01-16T13:52:27.241Z,3.97
2024-01-16T13:54:55.338Z,8.73
2024-01-16T13:57:22.048Z,11.50
2024-01-16T13:59:48.756Z,1.50
2024-01-16T14:02:15.353Z,6.95
2024-01-16T14:04:41.899Z,4.20
2024-01-16T14:07:12.597Z,3.67
2024-01-16T14:09:43.120Z,6.47
2024-01-16T14:12:10.703Z,3.55
2024-01-16T14:14:39.281Z,2.70
2024-01-16T14:17:06.196Z,8.07
2024-01-16T14:19:35.233Z,4.63
2024-01-16T14:22:02.052Z,0.90
2024-01-16T14:24:28.642Z,7.20
2024-01-16T14:26:57.734Z,1.98
2024-01-16T14:29:24.370Z,8.48
2024-01-16T14:31:51.100Z,9.00
2024-01-16T14:34:19.227Z,8.95
2024-01-16T14:36:46.814Z,4.25
2024-01-16T14:39:22.854Z,11.63
2024-01-16T14:41:49.429Z,5.10
2024-01-16T14:44:16.054Z,4.28
2024-01-16T14:46:47.178Z,10.85
2024-01-16T14:49:15.493Z,3.30
2024-01-16T14:51:42.430Z,4.15
2024-01-16T14:54:10.014Z,2.65
2024-01-16T14:56:36.781Z,8.85
2024-01-16T14:59:04.002Z,5.57
2024-01-16T15:01:30.528Z,3.60
2024-01-16T15:03:58.646Z,4.20
2024-01-16T15:06:27.816Z,3.35
2024-01-16T15:08:54.969Z,4.57
2024-01-16T15:11:22.059Z,9.60
2024-01-16T15:13:50.398Z,5.88
2024-01-16T15:16:17.633Z,3.72
2024-01-16T15:18:44.675Z,4.78
2024-01-16T15:21:11.784Z,6.47
2024-01-16T15:23:38.448Z,4.43
2024-01-16T15:26:05.896Z,9.32
2024-01-16T15:28:33.631Z,8.48
2024-01-16T15:31:07.346Z,7.45
2024-01-16T15:33:36.292Z,7.22
2024-01-16T15:36:04.342Z,12.00
2024-01-16T15:38:30.936Z,11.00
2024-01-16T15:40:57.434Z,9.25
2024-01-16T15:43:23.991Z,5.43
2024-01-16T15:45:50.652Z,11.15
2024-01-16T15:48:17.226Z,6.13
2024-01-16T15:50:43.848Z,5.47
2024-01-16T15:53:10.733Z,8.68
2024-01-16T15:55:37.271Z,10.50
2024-01-16T15:58:05.235Z,12.40
2024-01-16T16:00:32.187Z,11.15
2024-01-16T16:03:00.708Z,8.02
2024-01-16T16:05:27.467Z,6.70
2024-01-16T16:07:54.057Z,5.40
2024-01-16T16:10:20.623Z,4.80
2024-01-16T16:12:47.649Z,8.38
2024-01-16T16:15:14.123Z,7.43
2024-01-16T16:17:40.644Z,14.18
2024-01-16T16:20:10.452Z,12.77
2024-01-16T16:22:39.491Z,9.47
2024-01-16T16:25:06.860Z,2.70
2024-01-16T16:27:33.392Z,5.10
2024-01-16T16:29:59.996Z,7.97
2024-01-16T16:32:26.814Z,3.67
2024-01-16T16:34:54.283Z,4.68
2024-01-16T16:37:21.979Z,10.52
2024-01-16T16:39:48.694Z,9.45
2024-01-16T16:42:17.672Z,9.05
2024-01-16T16:44:45.622Z,7.85
2024-01-16T16:47:12.382Z,9.95
2024-01-16T16:49:38.970Z,13.40
2024-01-16T16:52:05.733Z,16.90
2024-01-16T16:54:32.413Z,8.55
2024-01-16T16:56:59.096Z,11.52
2024-01-16T16:59:25.846Z,16.55
2024-01-16T17:01:53.229Z,13.50
2024-01-16T17:04:19.961Z,9.50
2024-01-16T17:06:46.623Z,10.45
2024-01-16T17:09:13.296Z,15.52
2024-01-16T17:11:40.654Z,11.85
2024-01-16T17:14:07.217Z,11.25
2024-01-16T17:16:33.817Z,11.32
2024-01-16T17:19:00.556Z,12.07
2024-01-16T17:21:27.260Z,11.35
2024-01-16T17:23:54.133Z,16.92
2024-01-16T17:26:20.822Z,8.98
2024-01-16T17:28:47.567Z,9.63
2024-01-16T17:31:14.120Z,12.50
2024-01-16T17:33:40.788Z,12.43
2024-01-16T17:36:11.477Z,14.73
2024-01-16T17:41:05.781Z,10.57
2024-01-16T17:43:32.448Z,13.43
2024-01-16T17:45:59.141Z,21.05
2024-01-16T17:48:26.717Z,11.20
2024-01-16T17:50:53.480Z,13.18
2024-01-16T17:53:20.524Z,11.70
2024-01-16T17:55:47.661Z,8.77
2024-01-16T17:58:16.664Z,13.85
2024-01-16T18:00:43.305Z,10.88
2024-01-16T18:03:24.091Z,18.17
2024-01-16T18:06:00.442Z,16.23
2024-01-16T18:08:27.218Z,13.82
2024-01-16T18:10:55.620Z,18.15
2024-01-16T18:13:23.254Z,19.77
2024-01-16T18:15:50.009Z,11.75
2024-01-16T18:18:18.273Z,13.02
2024-01-16T18:20:45.035Z,15.38
2024-01-16T18:23:11.958Z,24.33
2024-01-16T18:25:38.516Z,27.67
2024-01-16T18:28:05.456Z,11.57
2024-01-16T18:30:34.294Z,16.92
2024-01-16T18:33:02.036Z,15.98
2024-01-16T18:35:29.460Z,17.52
2024-01-16T18:37:56.135Z,13.32
2024-01-16T18:40:24.491Z,20.60
2024-01-16T18:42:51.259Z,22.85
2024-01-16T18:45:17.820Z,21.90
2024-01-16T18:47:45.792Z,18.15
2024-01-16T18:50:12.952Z,26.02
2024-01-16T18:52:41.022Z,18.17
2024-01-16T18:55:12.085Z,13.55
2024-01-16T18:57:40.499Z,18.27
2024-01-16T19:00:15.531Z,20.27
2024-01-16T19:02:49.175Z,20.27
2024-01-16T19:05:16.909Z,23.20
2024-01-16T19:07:44.557Z,18.27
2024-01-16T19:10:13.758Z,20.63
2024-01-16T19:12:47.833Z,20.05
2024-01-16T19:15:18.493Z,22.67
2024-01-16T19:17:51.346Z,17.58
2024-01-16T19:20:22.967Z,24.88
2024-01-16T19:22:56.103Z,22.30
2024-01-16T19:25:26.231Z,24.45
2024-01-16T19:27:53.270Z,19.45
2024-01-16T19:30:20.695Z,28.38
2024-01-16T19:32:49.610Z,25.98
2024-01-16T19:35:17.952Z,20.48
2024-01-16T19:37:45.455Z,28.17
2024-01-16T19:40:13.602Z,14.98
2024-01-16T19:42:40.723Z,17.48
2024-01-16T19:45:10.324Z,19.85
2024-01-16T19:47:40.493Z,20.35
2024-01-16T19:50:10.829Z,22.30
2024-01-16T19:52:37.331Z,25.90
2024-01-16T19:55:06.791Z,19.55
2024-01-16T19:57:33.786Z,12.85
2024-01-16T20:00:02.611Z,17.92
2024-01-16T20:02:29.303Z,17.05
2024-01-16T20:04:55.952Z,20.90
2024-01-16T20:07:22.442Z,21.30
2024-01-16T20:09:48.942Z,26.08
2024-01-16T20:12:15.530Z,20.77
2024-01-16T20:14:42.777Z,23.80
2024-01-16T20:17:09.293Z,20.63
2024-01-16T20:19:35.836Z,16.00
2024-01-16T20:22:02.386Z,25.67
2024-01-16T20:24:30.126Z,21.40
2024-01-16T20:26:56.637Z,22.63
2024-01-16T20:29:23.219Z,27.33
2024-01-16T20:31:49.754Z,21.90
2024-01-16T20:34:16.664Z,17.77
2024-01-16T20:36:43.433Z,22.10
2024-01-16T20:39:10.664Z,27.13
2024-01-16T20:41:37.164Z,28.65
2024-01-16T20:44:04.210Z,25.00
2024-01-16T20:46:30.802Z,26.23
2024-01-16T20:48:57.474Z,22.42
2024-01-16T20:51:26.142Z,13.90
2024-01-16T20:53:53.111Z,20.25
2024-01-16T20:56:19.751Z,16.95
2024-01-16T20:58:46.285Z,15.05
2024-01-16T21:01:12.803Z,14.82
2024-01-16T21:03:39.674Z,23.35
2024-01-16T21:06:09.499Z,19.10
2024-01-16T21:08:37.060Z,17.17
2024-01-16T21:11:03.718Z,18.40
2024-01-16T21:13:30.846Z,22.35
2024-01-16T21:16:00.173Z,21.52
2024-01-16T21:18:32.134Z,17.98
2024-01-16T21:20:58.984Z,21.52
2024-01-16T21:23:25.500Z,17.88
2024-01-16T21:25:52.000Z,15.93
2024-01-16T21:28:18.775Z,20.80
2024-01-16T21:30:45.396Z,22.67
2024-01-16T21:33:13.655Z,22.73
2024-01-16T21:35:42.481Z,23.00
2024-01-16T21:38:09.113Z,15.93
2024-01-16T21:40:36.235Z,23.48
2024-01-16T21:43:04.576Z,16.02
2024-01-16T21:45:31.973Z,14.63
2024-01-16T21:47:58.647Z,26.00
2024-01-16T21:50:33.653Z,17.70
2024-01-16T21:53:04.910Z,19.40
2024-01-16T21:55:31.503Z,19.13
2024-01-16T21:57:58.110Z,19.88
2024-01-16T22:00:24.713Z,16.08
2024-01-16T22:02:57.764Z,16.58
2024-01-16T22:05:26.643Z,18.58
2024-01-16T22:07:53.241Z,17.67
2024-01-16T22:10:19.711Z,21.60
2024-01-16T22:12:46.654Z,12.18
2024-01-16T22:15:13.627Z,20.27
2024-01-16T22:17:40.359Z,20.58
2024-01-16T22:20:07.581Z,16.52
2024-01-16T22:22:34.217Z,22.52
2024-01-16T22:25:00.820Z,21.48
2024-01-16T22:27:27.365Z,37.97
2024-01-16T22:29:53.936Z,21.88
2024-01-16T22:32:22.116Z,19.92
2024-01-16T22:34:48.838Z,19.23
2024-01-16T22:37:15.579Z,19.77
2024-01-16T22:39:44.986Z,21.17
2024-01-16T22:42:11.529Z,16.10
2024-01-16T22:44:39.705Z,14.60
2024-01-16T22:47:06.774Z,16.20
2024-01-16T22:49:36.357Z,18.52
2024-01-16T22:52:03.241Z,19.48
2024-01-16T22:54:29.740Z,18.05
2024-01-16T22:56:56.294Z,24.05
2024-01-16T22:59:22.788Z,17.05
2024-01-16T23:01:49.378Z,22.08
2024-01-16T23:04:15.967Z,20.52
2024-01-16T23:06:42.538Z,17.90
2024-01-16T23:09:10.631Z,20.23
2024-01-16T23:11:37.186Z,19.65
2024-01-16T23:14:03.732Z,20.92
2024-01-16T23:16:30.303Z,21.08
2024-01-16T23:18:57.207Z,16.63
2024-01-16T23:21:25.165Z,16.92
2024-01-16T23:23:54.780Z,19.75
2024-01-16T23:26:23.457Z,17.80
2024-01-16T23:28:50.096Z,19.52
2024-01-16T23:31:17.537Z,20.83
2024-01-16T23:33:44.395Z,27.73
2024-01-16T23:36:11.134Z,22.25
2024-01-16T23:38:39.964Z,17.48
2024-01-16T23:41:10.197Z,21.08
2024-01-16T23:43:38.153Z,22.77
2024-01-16T23:46:08.478Z,21.42
2024-01-16T23:48:35.388Z,20.60
2024-01-16T23:51:03.226Z,17.90
2024-01-16T23:53:30.326Z,22.30
2024-01-16T23:55:57.578Z,22.92
2024-01-16T23:58:25.488Z,21.73
